»·PEaware :: DAL2841 KSLC-KPDX

DAL2841 :: KSLC-KPDX

FLIGHT INFORMATION

Flight Status: Arrived
Operator:
Delta Air Lines
More flights by this operator :: More flights under this callsign
Pilot: Joe P. (13940)
Aircraft: BOEING 737-700
(B737)
More flights by this aircraft type
Origin: KSLC Salt Lake City Intl
United States
Destination: KPDX Portland Intl
United States
More flights between these airports :: More routes between these airports
Route: CGULL1 TWF J15 BOI J163 BKE JOTBA HHOOD4
File this flight plan on PilotEdge
Remarks: KSEA -PBN / A1B1C1D1L1O1S1 NAV / RNVD1E2A1 DOF / 180807 REG / N389DA EET / KZSE0058 RVR / 200 PER / C
Altitude:
(Current/Filed)
340ft
Speed:
(Current/Filed)
458kts
Departed: 06-Aug-18 06:12 PM
Arrived: 06-Aug-18 07:46 PM
Distance/Time
Traveled:
546nm/1:34
Distance/Time
To Go:
Arrived

Flight Plot

Page will automatically refresh every two minutes.

Flight plan parsing failed; only flown route is shown


Map Options




Map Legend


Flown Route
Filed Route
Departure Airport
Arrival Airport
Navaid (VOR, NDB)
Fix

Horizontal Profiles

Position Reports

Time Latitude Longitude Heading Altitude Ground
Speed
06-Aug-18 18:05 40.789893 -111.985785 238 4234ft 0kts
06-Aug-18 18:06 40.789893 -111.985785 238 4234ft 0kts
06-Aug-18 18:07 40.790470 -111.987567 312 4234ft 18kts
06-Aug-18 18:08 40.791036 -111.993724 264 4234ft 11kts
06-Aug-18 18:09 40.787062 -111.994751 175 4234ft 21kts
06-Aug-18 18:10 40.780774 -111.994254 183 4234ft 17kts
06-Aug-18 18:11 40.777221 -111.994100 176 4234ft 24kts
06-Aug-18 18:12 40.775401 -111.994148 233 4234ft 1kts
06-Aug-18 18:13 40.777480 -111.995797 354 4235ft 55kts
06-Aug-18 18:14 40.817366 -112.004144 320 5487ft 182kts
06-Aug-18 18:15 40.838509 -112.067714 292 7373ft 225kts
06-Aug-18 18:16 40.864566 -112.155010 292 9027ft 268kts
06-Aug-18 18:17 40.894709 -112.245934 306 11941ft 273kts
06-Aug-18 18:18 40.961151 -112.317091 321 13216ft 345kts
06-Aug-18 18:19 41.042988 -112.398968 321 15064ft 379kts
06-Aug-18 18:20 41.131678 -112.477991 326 17406ft 391kts
06-Aug-18 18:21 41.221851 -112.562041 319 19533ft 400kts
06-Aug-18 18:22 41.306288 -112.660121 310 21417ft 408kts
06-Aug-18 18:23 41.383395 -112.773781 310 23113ft 417kts
06-Aug-18 18:24 41.460657 -112.890711 309 24630ft 424kts
06-Aug-18 18:25 41.538559 -113.010574 309 26079ft 429kts
06-Aug-18 18:26 41.617299 -113.132213 309 27394ft 435kts
06-Aug-18 18:27 41.697264 -113.255168 309 28608ft 440kts
06-Aug-18 18:28 41.776876 -113.378476 308 30210ft 434kts
06-Aug-18 18:29 41.854400 -113.499224 308 31968ft 423kts
06-Aug-18 18:30 41.930038 -113.617525 308 33626ft 412kts
06-Aug-18 18:31 42.004778 -113.734442 308 34180ft 412kts
06-Aug-18 18:32 42.078508 -113.850847 308 34184ft 407kts
06-Aug-18 18:33 42.151764 -113.967077 308 34185ft 407kts
06-Aug-18 18:34 42.225422 -114.083784 308 34189ft 407kts
06-Aug-18 18:35 42.299040 -114.200251 308 34192ft 408kts
06-Aug-18 18:36 42.372522 -114.317167 308 34196ft 409kts
06-Aug-18 18:37 42.446005 -114.435014 308 34199ft 409kts
06-Aug-18 18:38 42.520313 -114.552146 309 34199ft 410kts
06-Aug-18 18:39 42.595457 -114.668595 309 34195ft 410kts
06-Aug-18 18:40 42.670630 -114.785807 309 34191ft 411kts
06-Aug-18 18:41 42.745816 -114.902887 309 34189ft 412kts
06-Aug-18 18:42 42.821205 -115.020519 309 34185ft 412kts
06-Aug-18 18:43 42.896271 -115.138441 309 34177ft 411kts
06-Aug-18 18:44 42.971077 -115.256533 309 34165ft 411kts
06-Aug-18 18:45 43.045531 -115.374584 309 34151ft 411kts
06-Aug-18 18:46 43.120083 -115.493285 309 34138ft 410kts
06-Aug-18 18:47 43.194198 -115.611780 309 34133ft 410kts
06-Aug-18 18:48 43.268442 -115.730968 309 34131ft 409kts
06-Aug-18 18:49 43.342194 -115.849848 309 34132ft 409kts
06-Aug-18 18:50 43.416126 -115.969012 309 34129ft 409kts
06-Aug-18 18:51 43.489413 -116.088434 309 34124ft 408kts
06-Aug-18 18:52 43.564236 -116.205701 315 34120ft 409kts
06-Aug-18 18:53 43.649144 -116.309881 316 34116ft 409kts
06-Aug-18 18:54 43.734451 -116.414616 316 34108ft 409kts
06-Aug-18 18:55 43.819495 -116.519402 316 34108ft 409kts
06-Aug-18 18:56 43.904608 -116.623928 316 34101ft 408kts
06-Aug-18 18:57 43.989305 -116.728725 316 34099ft 408kts
06-Aug-18 18:58 44.059008 -116.851070 295 34095ft 409kts
06-Aug-18 18:59 44.105580 -116.995501 294 34092ft 407kts
06-Aug-18 19:00 44.151598 -117.139749 294 34096ft 407kts
06-Aug-18 19:01 44.197260 -117.283758 294 34107ft 406kts
06-Aug-18 19:02 44.242153 -117.427401 294 34123ft 404kts
06-Aug-18 19:03 44.287238 -117.571191 294 34141ft 403kts
06-Aug-18 19:04 44.332089 -117.714579 294 34158ft 402kts
06-Aug-18 19:05 44.376615 -117.858057 294 34168ft 402kts
06-Aug-18 19:06 44.421049 -118.001501 294 34174ft 402kts
06-Aug-18 19:07 44.465178 -118.144692 294 34184ft 402kts
06-Aug-18 19:08 44.509337 -118.288813 294 34185ft 403kts
06-Aug-18 19:09 44.553407 -118.433517 294 34185ft 404kts
06-Aug-18 19:10 44.597435 -118.579005 293 34173ft 405kts
06-Aug-18 19:11 44.641218 -118.724609 293 34173ft 406kts
06-Aug-18 19:12 44.685076 -118.871406 293 34173ft 406kts
06-Aug-18 19:13 44.728512 -119.018424 292 34173ft 407kts
06-Aug-18 19:14 44.771087 -119.166277 293 34149ft 407kts
06-Aug-18 19:15 44.813210 -119.314596 291 34144ft 409kts
06-Aug-18 19:16 44.855621 -119.462925 293 34126ft 408kts
06-Aug-18 19:17 44.897897 -119.611760 292 34110ft 408kts
06-Aug-18 19:18 44.939653 -119.760170 291 34097ft 408kts
06-Aug-18 19:19 44.981329 -119.909272 292 33082ft 408kts
06-Aug-18 19:20 45.023581 -120.057994 292 30558ft 404kts
06-Aug-18 19:21 45.072866 -120.197674 296 28540ft 392kts
06-Aug-18 19:22 45.115999 -120.337666 291 26581ft 384kts
06-Aug-18 19:23 45.155056 -120.477510 291 24639ft 379kts
06-Aug-18 19:24 45.201069 -120.610969 298 22932ft 376kts
06-Aug-18 19:25 45.252630 -120.742079 297 21340ft 377kts
06-Aug-18 19:26 45.302382 -120.871236 297 19767ft 370kts
06-Aug-18 19:27 45.350766 -120.998452 296 18224ft 363kts
06-Aug-18 19:28 45.398448 -121.123999 296 16640ft 357kts
06-Aug-18 19:29 45.438986 -121.251370 284 15146ft 350kts
06-Aug-18 19:30 45.464238 -121.383287 284 13702ft 336kts
06-Aug-18 19:31 45.489117 -121.508744 283 12326ft 316kts
06-Aug-18 19:32 45.511772 -121.624242 284 11075ft 297kts
06-Aug-18 19:33 45.530515 -121.733465 274 10458ft 262kts
06-Aug-18 19:34 45.533839 -121.828886 271 10196ft 217kts
06-Aug-18 19:35 45.536655 -121.913198 272 8851ft 214kts
06-Aug-18 19:36 45.540431 -121.998269 274 7352ft 213kts
06-Aug-18 19:37 45.526660 -122.074241 236 6417ft 192kts
06-Aug-18 19:38 45.501292 -122.124060 237 6044ft 183kts
06-Aug-18 19:39 45.478255 -122.187548 246 4700ft 175kts
06-Aug-18 19:40 45.465819 -122.257833 289 3959ft 160kts
06-Aug-18 19:41 45.485283 -122.314674 297 3970ft 158kts
06-Aug-18 19:42 45.502962 -122.360371 298 3245ft 156kts
06-Aug-18 19:43 45.523979 -122.414178 298 2419ft 155kts
06-Aug-18 19:44 45.544941 -122.467830 298 1597ft 154kts
06-Aug-18 19:45 45.565715 -122.521042 297 794ft 151kts
06-Aug-18 19:46 45.585646 -122.572130 299 35ft 140kts
06-Aug-18 19:47 45.592011 -122.589446 277 26ft 15kts
06-Aug-18 19:48 45.592083 -122.590530 274 26ft 0kts
06-Aug-18 19:49 45.592144 -122.592586 269 26ft 7kts
06-Aug-18 19:50 45.591281 -122.594133 204 26ft 0kts
06-Aug-18 19:51 45.591273 -122.594138 203 26ft 0kts
06-Aug-18 19:52 45.591273 -122.594138 203 26ft 0kts
06-Aug-18 19:53 45.591273 -122.594138 203 26ft 0kts
06-Aug-18 19:54 45.591273 -122.594138 203 26ft 0kts
06-Aug-18 19:55 45.591273 -122.594138 203 26ft 0kts
06-Aug-18 19:56 45.591273 -122.594138 203 26ft 0kts
06-Aug-18 19:57 45.591273 -122.594138 203 26ft 0kts
06-Aug-18 19:58 45.591273 -122.594138 203 26ft 0kts
06-Aug-18 19:59 45.591273 -122.594138 203 26ft 0kts
06-Aug-18 20:00 45.591273 -122.594138 203 26ft 0kts
06-Aug-18 20:01 45.591273 -122.594138 203 26ft 0kts

Navigation Log

Ident Type
Flight plan parsing failed, navigation log unavailable